Terminal Aerodrome Forecast
Issued by NWS Missoula, MT

Home | Current Version | Previous Version | Text Only | Print | Product List | Glossary On
Versions: 1 2 3 4 5 6 7 8 9 10 11 12
184
FTUS45 KMSO 242320
TAFMSO
TAF
KMSO 242320Z 2500/2524 31009KT P6SM SKC
     FM250300 35006KT P6SM SKC
     FM250400 VRB05KT P6SM SKC
     FM252300 31008KT P6SM SCT080=

USA.gov is the U.S. government's official web portal to all federal, state and local government web resources and services.